TimePST,TemperatureF,Dew PointF,Humidity,Sea Level PressureIn,VisibilityMPH,Wind Direction,Wind SpeedMPH,Gust SpeedMPH,PrecipitationIn,Events,Conditions,WindDirDegrees,DateUTC
12:00 AM,51.1,45.7,82,29.52,-9999.0,SSE,9.2,20.7,N/A,,Unknown,150,2012-11-19 08:00:00
1:00 AM,50.9,42.6,73,29.51,-9999.0,SE,10.4,-,N/A,,Unknown,140,2012-11-19 09:00:00
2:00 AM,50.9,42.6,73,29.52,-9999.0,SSE,10.4,19.6,N/A,,Unknown,150,2012-11-19 10:00:00
3:00 AM,47.8,45.1,90,29.53,-9999.0,SE,8.1,-,0.01,,Unknown,130,2012-11-19 11:00:00
4:00 AM,46,44,89,29.52,,East,3.5,,,,,80,2012-11-19 12:00:00
4:00 AM,45.9,43.7,92,29.52,-9999.0,East,3.5,-,N/A,,Unknown,80,2012-11-19 12:00:00
5:00 AM,45.1,43.7,95,29.52,-9999.0,East,2.3,-,0.02,,Unknown,90,2012-11-19 13:00:00
6:00 AM,45.3,44.1,95,29.50,-9999.0,East,3.5,-,0.02,,Unknown,90,2012-11-19 14:00:00
7:00 AM,45.3,44.2,96,29.47,-9999.0,East,3.5,-,0.07,,Unknown,90,2012-11-19 15:00:00
8:00 AM,45.1,43.7,95,29.49,-9999.0,East,8.1,-,0.02,,Unknown,100,2012-11-19 16:00:00
9:00 AM,45.3,43.5,93,29.48,-9999.0,East,6.9,-,0.04,,Unknown,100,2012-11-19 17:00:00
10:00 AM,45,44,93,29.48,,East,3.5,,,,,90,2012-11-19 18:00:00
10:00 AM,45.3,43.7,94,29.48,-9999.0,East,3.5,-,0.07,,Unknown,90,2012-11-19 18:00:00
11:00 AM,44.8,43.5,95,29.42,-9999.0,NNE,11.5,-,0.11,,Unknown,30,2012-11-19 19:00:00
12:00 PM,44.4,42.8,94,29.40,-9999.0,NNE,8.1,-,0.15,,Unknown,30,2012-11-19 20:00:00
1:00 PM,44.4,42.8,94,29.39,-9999.0,NE,2.3,-,0.10,,Unknown,40,2012-11-19 21:00:00
2:00 PM,44.4,42.6,93,29.36,-9999.0,NE,2.3,-,0.12,,Unknown,50,2012-11-19 22:00:00
3:00 PM,43.9,42.4,95,29.38,-9999.0,SSW,3.5,-,N/A,,Unknown,200,2012-11-19 23:00:00
4:00 PM,44,42,92,29.40,,NNW,2.3,,,,,330,2012-11-20 00:00:00
4:00 PM,43.7,42.4,95,29.40,-9999.0,NNW,2.3,-,0.06,,Unknown,330,2012-11-20 00:00:00
8:00 PM,43.2,42.1,96,29.53,-9999.0,SE,2.3,-,N/A,,Unknown,130,2012-11-20 04:00:00
9:00 PM,41.9,40.8,96,29.58,-9999.0,ESE,1.2,-,N/A,,Unknown,120,2012-11-20 05:00:00
10:00 PM,41,40,96,29.63,,SE,1.2,,,,,130,2012-11-20 06:00:00
10:00 PM,41.4,40.3,96,29.63,-9999.0,SE,1.2,-,N/A,,Unknown,130,2012-11-20 06:00:00
11:00 PM,40.8,39.9,97,29.65,-9999.0,West,2.3,-,N/A,,Unknown,270,2012-11-20 07:00:00